PWSweather.com
Personal Weather Stations
Station Observations
PENICUIKWS
PenicuikGB

PenicuikGB

Lat: 55.830932, Lon: -3.224533000000065

Elevation: 166

Station Type: Fine Offset

http://weather.penicuik.org

High Low Average
Temperature 40.3°F4.6°C 19.9°F-6.7°C 30.5°F-0.8°C
Dew Point 31.5°F-0.3°C 15.6°F-9.1°C 24.0°F-4.4°C
Winds 9.9 mph 15.9 kmh Calm Calm 3.0 mph S4.8 kmh S
Wind Gusts 13.6 mph21.9 kmh -- 4.0 mph6.4 kmh
Humidity 88% 62% 77%
Pressure 30.52 in1033.5 mb 30.00 in1015.9 mb -
Precipitation 0.01 in0.3 mm - -
Hour Temp Dew Point Humidity Winds Wind Gusts Pressure Precip Precip Rate Daily Precip Total
07:16 AM 23.9°F-4.5°C 19.8°F-6.8°C 84% 1.6 mph SW2.6 kmh SW 1.6 mph2.6 kmh 30.40 in1029.5 mb 0.00 in0.0 mm 0.00 in0.0 mm 0.00 in0.0 mm
07:29 AM 34.7°F1.5°C 23.4°F-4.8°C 63% 1.6 mph NW2.6 kmh NW 1.6 mph2.6 kmh 30.52 in1033.5 mb 0.00 in0.0 mm 0.00 in0.0 mm 0.00 in0.0 mm
07:30 AM 24.1°F-4.4°C 20.0°F-6.7°C 84% 1.6 mph S2.6 kmh S 1.6 mph2.6 kmh 30.39 in1029.1 mb 0.00 in0.0 mm 0.00 in0.0 mm 0.00 in0.0 mm
07:45 AM 23.7°F-4.6°C 19.6°F-6.9°C 84% 1.5 mph S2.4 kmh S 2.2 mph3.5 kmh 30.39 in1029.1 mb 0.00 in0.0 mm 0.00 in0.0 mm 0.00 in0.0 mm
08:00 AM 23.2°F-4.9°C 18.8°F-7.3°C 83% 1.6 mph SW2.6 kmh SW 3.1 mph5.0 kmh 30.39 in1029.1 mb 0.00 in0.0 mm 0.00 in0.0 mm 0.00 in0.0 mm
08:15 AM 23.2°F-4.9°C 18.8°F-7.3°C 83% 1.1 mph SW1.8 kmh SW 2.2 mph3.5 kmh 30.39 in1029.1 mb 0.00 in0.0 mm 0.00 in0.0 mm 0.00 in0.0 mm
08:30 AM 23.5°F-4.7°C 19.5°F-6.9°C 84% 1.2 mph S1.9 kmh S 2.2 mph3.5 kmh 30.40 in1029.5 mb 0.00 in0.0 mm 0.00 in0.0 mm 0.00 in0.0 mm
08:45 AM 23.5°F-4.7°C 19.5°F-6.9°C 84% 1.4 mph S2.3 kmh S 2.2 mph3.5 kmh 30.40 in1029.5 mb 0.00 in0.0 mm 0.00 in0.0 mm 0.00 in0.0 mm
09:00 AM 23.5°F-4.7°C 19.5°F-6.9°C 84% 1.0 mph SSW1.6 kmh SSW 1.6 mph2.6 kmh 30.39 in1029.1 mb 0.00 in0.0 mm 0.00 in0.0 mm 0.00 in0.0 mm
09:15 AM 24.6°F-4.1°C 20.5°F-6.4°C 84% 1.3 mph S2.1 kmh S 3.1 mph5.0 kmh 30.39 in1029.1 mb 0.00 in0.0 mm 0.00 in0.0 mm 0.00 in0.0 mm
09:45 AM 25.3°F-3.7°C 20.9°F-6.2°C 83% 1.3 mph SW2.1 kmh SW 1.6 mph2.6 kmh 30.38 in1028.8 mb 0.00 in0.0 mm 0.00 in0.0 mm 0.00 in0.0 mm
10:00 AM 26.2°F-3.2°C 22.1°F-5.5°C 84% 1.2 mph SW1.9 kmh SW 1.6 mph2.6 kmh 30.38 in1028.8 mb 0.00 in0.0 mm 0.00 in0.0 mm 0.00 in0.0 mm
10:15 AM 30.4°F-0.9°C 27.3°F-2.6°C 88% 1.4 mph SSW2.3 kmh SSW 1.6 mph2.6 kmh 30.38 in1028.8 mb 0.00 in0.0 mm 0.00 in0.0 mm 0.00 in0.0 mm
10:30 AM 35.2°F1.8°C 31.5°F-0.3°C 86% 1.3 mph NW2.1 kmh NW 3.1 mph5.0 kmh 30.36 in1028.1 mb 0.00 in0.0 mm 0.00 in0.0 mm 0.00 in0.0 mm
10:45 AM 36.3°F2.4°C 30.4°F-0.9°C 79% 4.0 mph SE6.4 kmh SE 7.6 mph12.2 kmh 30.36 in1028.1 mb 0.00 in0.0 mm 0.00 in0.0 mm 0.00 in0.0 mm
11:00 AM 39.2°F4.0°C 29.2°F-1.6°C 67% 6.9 mph S11.1 kmh S 10.7 mph17.2 kmh 30.35 in1027.8 mb 0.00 in0.0 mm 0.00 in0.0 mm 0.00 in0.0 mm
11:15 AM 39.4°F4.1°C 27.9°F-2.3°C 63% 6.3 mph SE10.1 kmh SE 11.4 mph18.3 kmh 30.35 in1027.8 mb 0.00 in0.0 mm 0.00 in0.0 mm 0.00 in0.0 mm
11:30 AM 40.3°F4.6°C 28.3°F-2.1°C 62% 8.8 mph SW14.2 kmh SW 12.1 mph19.5 kmh 30.33 in1027.1 mb 0.00 in0.0 mm 0.00 in0.0 mm 0.00 in0.0 mm
11:45 AM 40.3°F4.6°C 28.3°F-2.1°C 62% 9.8 mph SSE15.8 kmh SSE 12.1 mph19.5 kmh 30.33 in1027.1 mb 0.00 in0.0 mm 0.00 in0.0 mm 0.00 in0.0 mm
12:00 PM 40.1°F4.5°C 28.1°F-2.2°C 62% 9.1 mph SSE14.6 kmh SSE 12.1 mph19.5 kmh 30.32 in1026.8 mb 0.00 in0.0 mm 0.00 in0.0 mm 0.00 in0.0 mm
12:15 PM 38.5°F3.6°C 27.4°F-2.6°C 64% 9.7 mph SE15.6 kmh SE 11.4 mph18.3 kmh 30.32 in1026.8 mb 0.00 in0.0 mm 0.00 in0.0 mm 0.00 in0.0 mm
12:30 PM 37.0°F2.8°C 26.0°F-3.3°C 64% 9.6 mph S15.4 kmh S 12.1 mph19.5 kmh 30.31 in1026.4 mb 0.00 in0.0 mm 0.00 in0.0 mm 0.00 in0.0 mm
12:45 PM 37.0°F2.8°C 26.8°F-2.9°C 66% 7.8 mph SSE12.6 kmh SSE 11.4 mph18.3 kmh 30.30 in1026.1 mb 0.00 in0.0 mm 0.00 in0.0 mm 0.00 in0.0 mm
01:00 PM 37.0°F2.8°C 27.1°F-2.7°C 67% 6.9 mph S11.1 kmh S 9.2 mph14.8 kmh 30.30 in1026.1 mb 0.00 in0.0 mm 0.00 in0.0 mm 0.00 in0.0 mm
01:15 PM 36.9°F2.7°C 27.3°F-2.6°C 68% 6.5 mph S10.5 kmh S 8.3 mph13.4 kmh 30.29 in1025.7 mb 0.00 in0.0 mm 0.00 in0.0 mm 0.00 in0.0 mm
01:30 PM 36.7°F2.6°C 27.1°F-2.7°C 68% 6.3 mph S10.1 kmh S 10.7 mph17.2 kmh 30.27 in1025.1 mb 0.00 in0.0 mm 0.00 in0.0 mm 0.00 in0.0 mm
01:45 PM 36.7°F2.6°C 27.1°F-2.7°C 68% 4.8 mph S7.7 kmh S 8.3 mph13.4 kmh 30.27 in1025.1 mb 0.00 in0.0 mm 0.00 in0.0 mm 0.00 in0.0 mm
02:00 PM 36.3°F2.4°C 27.1°F-2.7°C 69% 3.2 mph SSW5.1 kmh SSW 4.5 mph7.2 kmh 30.27 in1025.1 mb 0.00 in0.0 mm 0.00 in0.0 mm 0.00 in0.0 mm
02:15 PM 36.1°F2.3°C 27.0°F-2.8°C 69% 4.4 mph S7.1 kmh S 8.3 mph13.4 kmh 30.26 in1024.7 mb 0.00 in0.0 mm 0.00 in0.0 mm 0.00 in0.0 mm
02:30 PM 36.1°F2.3°C 27.0°F-2.8°C 69% 4.9 mph SSE7.9 kmh SSE 6.0 mph9.7 kmh 30.26 in1024.7 mb 0.00 in0.0 mm 0.00 in0.0 mm 0.00 in0.0 mm
02:45 PM 35.8°F2.1°C 26.6°F-3.0°C 69% 3.2 mph S5.1 kmh S 5.4 mph8.7 kmh 30.25 in1024.4 mb 0.00 in0.0 mm 0.00 in0.0 mm 0.00 in0.0 mm
03:00 PM 35.8°F2.1°C 27.0°F-2.8°C 70% 5.2 mph S8.4 kmh S 6.9 mph11.1 kmh 30.23 in1023.7 mb 0.00 in0.0 mm 0.00 in0.0 mm 0.00 in0.0 mm
03:15 PM 35.1°F1.7°C 26.6°F-3.0°C 71% 3.2 mph S5.1 kmh S 4.5 mph7.2 kmh 30.23 in1023.7 mb 0.00 in0.0 mm 0.00 in0.0 mm 0.00 in0.0 mm
03:30 PM 34.7°F1.5°C 26.3°F-3.2°C 71% 2.8 mph SSE4.5 kmh SSE 3.8 mph6.1 kmh 30.22 in1023.4 mb 0.00 in0.0 mm 0.00 in0.0 mm 0.00 in0.0 mm
03:45 PM 34.5°F1.4°C 26.1°F-3.3°C 71% 3.5 mph SSE5.6 kmh SSE 6.9 mph11.1 kmh 30.21 in1023.0 mb 0.00 in0.0 mm 0.00 in0.0 mm 0.00 in0.0 mm
04:00 PM 34.9°F1.6°C 26.5°F-3.1°C 71% 4.1 mph S6.6 kmh S 7.6 mph12.2 kmh 30.21 in1023.0 mb 0.00 in0.0 mm 0.00 in0.0 mm 0.00 in0.0 mm
04:15 PM 34.3°F1.3°C 25.9°F-3.4°C 71% 1.9 mph SW3.1 kmh SW 6.0 mph9.7 kmh 30.22 in1023.4 mb 0.00 in0.0 mm 0.00 in0.0 mm 0.00 in0.0 mm
04:30 PM 32.5°F0.3°C 24.9°F-3.9°C 73% 2.2 mph SE3.5 kmh SE 3.1 mph5.0 kmh 30.22 in1023.4 mb 0.00 in0.0 mm 0.00 in0.0 mm 0.00 in0.0 mm
04:45 PM 33.1°F0.6°C 26.0°F-3.3°C 75% 1.5 mph N2.4 kmh N 2.2 mph3.5 kmh 30.21 in1023.0 mb 0.00 in0.0 mm 0.00 in0.0 mm 0.00 in0.0 mm
05:00 PM 33.3°F0.7°C 26.9°F-2.8°C 77% 2.1 mph WSW3.4 kmh WSW 5.4 mph8.7 kmh 30.20 in1022.7 mb 0.00 in0.0 mm 0.00 in0.0 mm 0.00 in0.0 mm
05:15 PM 32.4°F0.2°C 25.7°F-3.5°C 76% 1.0 mph N1.6 kmh N 1.6 mph2.6 kmh 30.20 in1022.7 mb 0.00 in0.0 mm 0.00 in0.0 mm 0.00 in0.0 mm
05:30 PM 31.3°F-0.4°C 24.9°F-3.9°C 77% 0.8 mph W1.3 kmh W 1.6 mph2.6 kmh 30.20 in1022.7 mb 0.00 in0.0 mm 0.00 in0.0 mm 0.00 in0.0 mm
05:45 PM 33.3°F0.7°C 27.5°F-2.5°C 79% 3.1 mph S5.0 kmh S 6.9 mph11.1 kmh 30.19 in1022.4 mb 0.00 in0.0 mm 0.00 in0.0 mm 0.00 in0.0 mm
06:00 PM 34.9°F1.6°C 27.8°F-2.3°C 75% 5.2 mph S8.4 kmh S 8.3 mph13.4 kmh 30.18 in1022.0 mb 0.00 in0.0 mm 0.00 in0.0 mm 0.00 in0.0 mm
06:15 PM 34.5°F1.4°C 26.1°F-3.3°C 71% 2.4 mph SSE3.9 kmh SSE 4.5 mph7.2 kmh 30.17 in1021.7 mb 0.00 in0.0 mm 0.00 in0.0 mm 0.00 in0.0 mm
06:30 PM 34.2°F1.2°C 26.1°F-3.3°C 72% 1.9 mph SSE3.1 kmh SSE 3.1 mph5.0 kmh 30.16 in1021.3 mb 0.00 in0.0 mm 0.00 in0.0 mm 0.00 in0.0 mm
06:45 PM 33.8°F1.0°C 26.1°F-3.3°C 73% 2.4 mph SW3.9 kmh SW 5.4 mph8.7 kmh 30.15 in1021.0 mb 0.00 in0.0 mm 0.00 in0.0 mm 0.00 in0.0 mm
07:00 PM 34.5°F1.4°C 26.8°F-2.9°C 73% 2.6 mph SSW4.2 kmh SSW 5.4 mph8.7 kmh 30.14 in1020.7 mb 0.00 in0.0 mm 0.00 in0.0 mm 0.00 in0.0 mm
07:15 PM 33.8°F1.0°C 26.1°F-3.3°C 73% 1.5 mph NNW2.4 kmh NNW 3.1 mph5.0 kmh 30.14 in1020.7 mb 0.00 in0.0 mm 0.00 in0.0 mm 0.00 in0.0 mm
07:30 PM 32.7°F0.4°C 25.4°F-3.7°C 74% 0.8 mph NW1.3 kmh NW 1.6 mph2.6 kmh 30.14 in1020.7 mb 0.00 in0.0 mm 0.00 in0.0 mm 0.00 in0.0 mm
07:45 PM 31.8°F-0.1°C 25.1°F-3.8°C 76% 0.7 mph NW1.1 kmh NW 1.6 mph2.6 kmh 30.13 in1020.3 mb 0.00 in0.0 mm 0.00 in0.0 mm 0.00 in0.0 mm
08:00 PM 31.3°F-0.4°C 25.2°F-3.8°C 78% 1.3 mph NNW2.1 kmh NNW 2.2 mph3.5 kmh 30.12 in1020.0 mb 0.00 in0.0 mm 0.00 in0.0 mm 0.00 in0.0 mm
08:15 PM 32.2°F0.1°C 26.7°F-2.9°C 80% 1.8 mph SW2.9 kmh SW 3.1 mph5.0 kmh 30.12 in1020.0 mb 0.00 in0.0 mm 0.00 in0.0 mm 0.00 in0.0 mm
08:30 PM 34.9°F1.6°C 29.7°F-1.3°C 81% 3.0 mph SSW4.8 kmh SSW 6.9 mph11.1 kmh 30.11 in1019.6 mb 0.00 in0.0 mm 0.00 in0.0 mm 0.00 in0.0 mm
08:45 PM 35.6°F2.0°C 29.4°F-1.4°C 78% 3.0 mph SE4.8 kmh SE 4.5 mph7.2 kmh 30.10 in1019.3 mb 0.00 in0.0 mm 0.00 in0.0 mm 0.00 in0.0 mm
09:00 PM 36.3°F2.4°C 29.5°F-1.4°C 76% 2.1 mph NNW3.4 kmh NNW 6.0 mph9.7 kmh 30.10 in1019.3 mb 0.00 in0.0 mm 0.00 in0.0 mm 0.00 in0.0 mm
09:15 PM 35.2°F1.8°C 28.1°F-2.2°C 75% 1.1 mph WNW1.8 kmh WNW 4.5 mph7.2 kmh 30.09 in1019.0 mb 0.00 in0.0 mm 0.00 in0.0 mm 0.00 in0.0 mm
09:30 PM 37.0°F2.8°C 30.2°F-1.0°C 76% 2.9 mph SE4.7 kmh SE 6.0 mph9.7 kmh 30.09 in1019.0 mb 0.00 in0.0 mm 0.00 in0.0 mm 0.00 in0.0 mm
10:00 PM 37.6°F3.1°C 31.4°F-0.3°C 78% 4.9 mph S7.9 kmh S 6.9 mph11.1 kmh 30.07 in1018.3 mb 0.00 in0.0 mm 0.00 in0.0 mm 0.00 in0.0 mm
10:15 PM 37.8°F3.2°C 31.2°F-0.4°C 77% 7.6 mph SSW12.2 kmh SSW 11.4 mph18.3 kmh 30.06 in1017.9 mb 0.01 in0.3 mm 0.04 in1.0 mm 0.01 in0.3 mm
10:30 PM 37.8°F3.2°C 31.2°F-0.4°C 77% 9.6 mph S15.4 kmh S 12.1 mph19.5 kmh 30.04 in1017.3 mb 0.01 in0.3 mm 0.00 in0.0 mm 0.01 in0.3 mm
10:45 PM 37.4°F3.0°C 30.9°F-0.6°C 77% 6.5 mph S10.5 kmh S 8.3 mph13.4 kmh 30.03 in1016.9 mb 0.01 in0.3 mm 0.00 in0.0 mm 0.01 in0.3 mm
11:00 PM 37.4°F3.0°C 31.2°F-0.4°C 78% 6.1 mph S9.8 kmh S 8.3 mph13.4 kmh 30.02 in1016.6 mb 0.01 in0.3 mm 0.00 in0.0 mm 0.01 in0.3 mm
11:15 PM 37.6°F3.1°C 31.4°F-0.3°C 78% 7.7 mph S12.4 kmh S 9.8 mph15.8 kmh 30.02 in1016.6 mb 0.00 in0.0 mm 0.00 in0.0 mm 0.01 in0.3 mm
11:30 PM 37.6°F3.1°C 31.4°F-0.3°C 78% 8.9 mph S14.3 kmh S 13.6 mph21.9 kmh 30.01 in1016.3 mb 0.00 in0.0 mm 0.00 in0.0 mm 0.01 in0.3 mm
11:45 PM 37.8°F3.2°C 31.5°F-0.3°C 78% 9.9 mph S15.9 kmh S 13.0 mph20.9 kmh 30.00 in1015.9 mb 0.00 in0.0 mm 0.00 in0.0 mm 0.01 in0.3 mm